sensor_id;sensor_type;location;lat;lon;timestamp;pressure;altitude;pressure_sealevel;temperature;humidity
37904;BME280;23738;50.422;18.758;2023-02-04T00:02:25;97683.98;;;2.76;97.85
37904;BME280;23738;50.422;18.758;2023-02-04T00:04:52;97680.33;;;2.75;98.06
37904;BME280;23738;50.422;18.758;2023-02-04T00:07:19;97686.76;;;2.74;98.26
37904;BME280;23738;50.422;18.758;2023-02-04T00:09:47;97680.33;;;2.74;98.51
37904;BME280;23738;50.422;18.758;2023-02-04T00:12:15;97676.27;;;2.75;98.08
37904;BME280;23738;50.422;18.758;2023-02-04T00:14:43;97677.17;;;2.73;98.42
37904;BME280;23738;50.422;18.758;2023-02-04T00:17:10;97679.52;;;2.72;98.56
37904;BME280;23738;50.422;18.758;2023-02-04T00:19:39;97681.33;;;2.72;98.61
37904;BME280;23738;50.422;18.758;2023-02-04T00:22:07;97674.86;;;2.72;98.36
37904;BME280;23738;50.422;18.758;2023-02-04T00:24:35;97675.77;;;2.72;98.28
37904;BME280;23738;50.422;18.758;2023-02-04T00:27:02;97679.11;;;2.71;98.34
37904;BME280;23738;50.422;18.758;2023-02-04T00:29:30;97681.60;;;2.71;98.47
37904;BME280;23738;50.422;18.758;2023-02-04T00:31:57;97680.42;;;2.71;98.50
37904;BME280;23738;50.422;18.758;2023-02-04T00:34:24;97682.09;;;2.71;98.32
37904;BME280;23738;50.422;18.758;2023-02-04T00:36:52;97681.99;;;2.72;98.30
37904;BME280;23738;50.422;18.758;2023-02-04T00:39:19;97682.77;;;2.70;98.85
37904;BME280;23738;50.422;18.758;2023-02-04T00:41:46;97684.08;;;2.69;98.68
37904;BME280;23738;50.422;18.758;2023-02-04T00:44:14;97686.16;;;2.69;98.63
37904;BME280;23738;50.422;18.758;2023-02-04T00:46:41;97687.51;;;2.69;98.55
37904;BME280;23738;50.422;18.758;2023-02-04T00:49:09;97678.60;;;2.70;98.86
37904;BME280;23738;50.422;18.758;2023-02-04T00:51:37;97679.19;;;2.69;98.83
37904;BME280;23738;50.422;18.758;2023-02-04T00:54:05;97673.65;;;2.69;99.01
37904;BME280;23738;50.422;18.758;2023-02-04T00:56:33;97671.17;;;2.69;98.90
37904;BME280;23738;50.422;18.758;2023-02-04T00:59:01;97671.83;;;2.70;98.59
37904;BME280;23738;50.422;18.758;2023-02-04T01:01:28;97670.06;;;2.70;98.90
37904;BME280;23738;50.422;18.758;2023-02-04T01:03:55;97663.97;;;2.68;99.22
37904;BME280;23738;50.422;18.758;2023-02-04T01:06:22;97667.17;;;2.69;98.99
37904;BME280;23738;50.422;18.758;2023-02-04T01:08:50;97664.23;;;2.71;99.11
37904;BME280;23738;50.422;18.758;2023-02-04T01:11:17;97665.91;;;2.71;98.75
37904;BME280;23738;50.422;18.758;2023-02-04T01:13:45;97662.66;;;2.72;98.90
37904;BME280;23738;50.422;18.758;2023-02-04T01:16:13;97656.45;;;2.69;99.36
37904;BME280;23738;50.422;18.758;2023-02-04T01:18:40;97667.71;;;2.72;98.65
37904;BME280;23738;50.422;18.758;2023-02-04T01:21:07;97670.69;;;2.72;99.13
37904;BME280;23738;50.422;18.758;2023-02-04T01:23:35;97679.46;;;2.71;99.11
37904;BME280;23738;50.422;18.758;2023-02-04T01:26:02;97687.27;;;2.68;98.56
37904;BME280;23738;50.422;18.758;2023-02-04T01:28:30;97689.29;;;2.63;98.32
37904;BME280;23738;50.422;18.758;2023-02-04T01:30:58;97693.67;;;2.56;97.96
37904;BME280;23738;50.422;18.758;2023-02-04T01:33:25;97697.48;;;2.49;97.59
37904;BME280;23738;50.422;18.758;2023-02-04T01:35:52;97692.66;;;2.42;97.37
37904;BME280;23738;50.422;18.758;2023-02-04T01:38:19;97689.38;;;2.39;97.16
37904;BME280;23738;50.422;18.758;2023-02-04T01:40:47;97696.98;;;2.34;97.46
37904;BME280;23738;50.422;18.758;2023-02-04T01:43:14;97702.54;;;2.29;97.40
37904;BME280;23738;50.422;18.758;2023-02-04T01:45:44;97706.77;;;2.25;97.40
37904;BME280;23738;50.422;18.758;2023-02-04T01:48:11;97705.66;;;2.23;97.73
37904;BME280;23738;50.422;18.758;2023-02-04T01:50:40;97712.70;;;2.22;97.58
37904;BME280;23738;50.422;18.758;2023-02-04T01:53:07;97713.35;;;2.21;97.50
37904;BME280;23738;50.422;18.758;2023-02-04T01:55:35;97708.20;;;2.17;97.54
37904;BME280;23738;50.422;18.758;2023-02-04T01:58:02;97710.23;;;2.15;97.35
37904;BME280;23738;50.422;18.758;2023-02-04T02:00:31;97721.25;;;2.08;96.86
37904;BME280;23738;50.422;18.758;2023-02-04T02:02:59;97731.59;;;1.97;96.67
37904;BME280;23738;50.422;18.758;2023-02-04T02:05:30;97741.36;;;1.85;96.54
37904;BME280;23738;50.422;18.758;2023-02-04T02:08:00;97747.52;;;1.77;96.34
37904;BME280;23738;50.422;18.758;2023-02-04T02:10:29;97743.02;;;1.68;96.82
37904;BME280;23738;50.422;18.758;2023-02-04T02:12:57;97742.21;;;1.65;96.90
37904;BME280;23738;50.422;18.758;2023-02-04T02:15:24;97746.17;;;1.60;96.68
37904;BME280;23738;50.422;18.758;2023-02-04T02:17:52;97751.61;;;1.54;96.78
37904;BME280;23738;50.422;18.758;2023-02-04T02:20:23;97752.81;;;1.48;96.56
37904;BME280;23738;50.422;18.758;2023-02-04T02:22:58;97765.36;;;1.44;96.46
37904;BME280;23738;50.422;18.758;2023-02-04T02:25:27;97763.52;;;1.39;96.30
37904;BME280;23738;50.422;18.758;2023-02-04T02:27:54;97763.39;;;1.33;96.48
37904;BME280;23738;50.422;18.758;2023-02-04T02:30:23;97768.16;;;1.28;96.48
37904;BME280;23738;50.422;18.758;2023-02-04T02:32:51;97771.77;;;1.25;96.35
37904;BME280;23738;50.422;18.758;2023-02-04T02:35:19;97775.30;;;1.22;96.57
37904;BME280;23738;50.422;18.758;2023-02-04T02:37:46;97776.98;;;1.21;96.63
37904;BME280;23738;50.422;18.758;2023-02-04T02:40:14;97781.11;;;1.18;96.23
37904;BME280;23738;50.422;18.758;2023-02-04T02:42:42;97781.95;;;1.17;96.47
37904;BME280;23738;50.422;18.758;2023-02-04T02:45:15;97785.43;;;1.17;96.47
37904;BME280;23738;50.422;18.758;2023-02-04T02:47:44;97790.62;;;1.15;96.35
37904;BME280;23738;50.422;18.758;2023-02-04T02:50:15;97792.44;;;1.13;96.45
37904;BME280;23738;50.422;18.758;2023-02-04T02:52:44;97793.16;;;1.11;96.50
37904;BME280;23738;50.422;18.758;2023-02-04T02:55:17;97793.94;;;1.10;96.64
37904;BME280;23738;50.422;18.758;2023-02-04T02:57:46;97800.73;;;1.09;96.55
37904;BME280;23738;50.422;18.758;2023-02-04T03:00:19;97806.13;;;1.06;96.63
37904;BME280;23738;50.422;18.758;2023-02-04T03:02:54;97804.67;;;1.00;96.50
37904;BME280;23738;50.422;18.758;2023-02-04T03:05:23;97821.75;;;1.04;96.59
37904;BME280;23738;50.422;18.758;2023-02-04T03:07:51;97824.60;;;1.04;96.47
37904;BME280;23738;50.422;18.758;2023-02-04T03:10:18;97832.43;;;1.02;96.75
37904;BME280;23738;50.422;18.758;2023-02-04T03:12:46;97833.84;;;1.00;96.80
37904;BME280;23738;50.422;18.758;2023-02-04T03:15:14;97840.11;;;0.97;96.57
37904;BME280;23738;50.422;18.758;2023-02-04T03:17:42;97844.47;;;0.97;96.87
37904;BME280;23738;50.422;18.758;2023-02-04T03:20:13;97848.71;;;0.95;96.71
37904;BME280;23738;50.422;18.758;2023-02-04T03:22:42;97858.73;;;0.94;96.73
37904;BME280;23738;50.422;18.758;2023-02-04T03:25:09;97863.94;;;0.90;96.84
37904;BME280;23738;50.422;18.758;2023-02-04T03:27:37;97883.23;;;0.90;96.57
37904;BME280;23738;50.422;18.758;2023-02-04T03:30:07;97883.69;;;0.89;96.83
37904;BME280;23738;50.422;18.758;2023-02-04T03:32:34;97893.83;;;0.86;96.88
37904;BME280;23738;50.422;18.758;2023-02-04T03:35:02;97911.83;;;0.83;96.90
37904;BME280;23738;50.422;18.758;2023-02-04T03:37:29;97925.85;;;0.80;96.97
37904;BME280;23738;50.422;18.758;2023-02-04T03:39:56;97942.39;;;0.77;96.79
37904;BME280;23738;50.422;18.758;2023-02-04T03:42:23;97952.02;;;0.78;96.84
37904;BME280;23738;50.422;18.758;2023-02-04T03:44:51;97964.21;;;0.74;96.77
37904;BME280;23738;50.422;18.758;2023-02-04T03:47:18;97983.96;;;0.78;96.93
37904;BME280;23738;50.422;18.758;2023-02-04T03:49:45;98003.30;;;0.76;96.68
37904;BME280;23738;50.422;18.758;2023-02-04T03:52:13;98024.33;;;0.74;96.59
37904;BME280;23738;50.422;18.758;2023-02-04T03:54:40;98033.10;;;0.71;96.55
37904;BME280;23738;50.422;18.758;2023-02-04T03:57:07;98045.51;;;0.65;96.43
37904;BME280;23738;50.422;18.758;2023-02-04T03:59:35;98063.66;;;0.55;96.15
37904;BME280;23738;50.422;18.758;2023-02-04T04:02:02;98082.86;;;0.48;96.05
37904;BME280;23738;50.422;18.758;2023-02-04T04:04:29;98100.39;;;0.46;96.19
37904;BME280;23738;50.422;18.758;2023-02-04T04:06:57;98126.95;;;0.40;95.59
37904;BME280;23738;50.422;18.758;2023-02-04T04:09:24;98144.04;;;0.35;95.93
37904;BME280;23738;50.422;18.758;2023-02-04T04:11:51;98159.05;;;0.32;96.03
37904;BME280;23738;50.422;18.758;2023-02-04T04:14:18;98173.56;;;0.29;95.75
37904;BME280;23738;50.422;18.758;2023-02-04T04:16:45;98202.61;;;0.22;95.44
37904;BME280;23738;50.422;18.758;2023-02-04T04:19:13;98220.34;;;0.16;95.43
37904;BME280;23738;50.422;18.758;2023-02-04T04:21:40;98237.55;;;0.09;95.32
37904;BME280;23738;50.422;18.758;2023-02-04T04:24:08;98254.60;;;0.07;95.65
37904;BME280;23738;50.422;18.758;2023-02-04T04:26:35;98265.95;;;0.04;95.39
37904;BME280;23738;50.422;18.758;2023-02-04T04:29:02;98277.40;;;0.04;95.48
37904;BME280;23738;50.422;18.758;2023-02-04T04:31:29;98294.67;;;0.04;95.54
37904;BME280;23738;50.422;18.758;2023-02-04T04:33:56;98301.19;;;0.03;95.40
37904;BME280;23738;50.422;18.758;2023-02-04T04:36:24;98309.31;;;-0.03;95.08
37904;BME280;23738;50.422;18.758;2023-02-04T04:38:51;98328.84;;;-0.08;95.15
37904;BME280;23738;50.422;18.758;2023-02-04T04:41:18;98341.49;;;-0.11;95.13
37904;BME280;23738;50.422;18.758;2023-02-04T04:43:45;98364.74;;;-0.13;94.92
37904;BME280;23738;50.422;18.758;2023-02-04T04:46:12;98377.55;;;-0.17;95.01
37904;BME280;23738;50.422;18.758;2023-02-04T04:48:40;98392.78;;;-0.19;95.00
37904;BME280;23738;50.422;18.758;2023-02-04T04:51:07;98405.83;;;-0.22;94.81
37904;BME280;23738;50.422;18.758;2023-02-04T04:53:34;98424.68;;;-0.24;94.93
37904;BME280;23738;50.422;18.758;2023-02-04T04:56:01;98436.33;;;-0.24;94.84
37904;BME280;23738;50.422;18.758;2023-02-04T04:58:29;98459.70;;;-0.26;94.60
37904;BME280;23738;50.422;18.758;2023-02-04T05:00:56;98465.63;;;-0.28;94.60
37904;BME280;23738;50.422;18.758;2023-02-04T05:03:23;98487.95;;;-0.30;94.60
37904;BME280;23738;50.422;18.758;2023-02-04T05:05:50;98491.54;;;-0.30;94.58
37904;BME280;23738;50.422;18.758;2023-02-04T05:08:17;98510.78;;;-0.34;94.39
37904;BME280;23738;50.422;18.758;2023-02-04T05:10:46;98533.05;;;-0.40;94.28
37904;BME280;23738;50.422;18.758;2023-02-04T05:13:14;98546.01;;;-0.44;94.40
37904;BME280;23738;50.422;18.758;2023-02-04T05:15:41;98560.07;;;-0.44;94.45
37904;BME280;23738;50.422;18.758;2023-02-04T05:18:08;98583.77;;;-0.46;94.20
37904;BME280;23738;50.422;18.758;2023-02-04T05:20:36;98595.42;;;-0.49;94.18
37904;BME280;23738;50.422;18.758;2023-02-04T05:23:03;98598.38;;;-0.53;93.93
37904;BME280;23738;50.422;18.758;2023-02-04T05:25:30;98623.21;;;-0.58;93.71
37904;BME280;23738;50.422;18.758;2023-02-04T05:27:57;98637.16;;;-0.64;93.45
37904;BME280;23738;50.422;18.758;2023-02-04T05:30:24;98650.71;;;-0.66;93.65
37904;BME280;23738;50.422;18.758;2023-02-04T05:32:52;98661.70;;;-0.67;93.75
37904;BME280;23738;50.422;18.758;2023-02-04T05:35:19;98673.34;;;-0.68;93.98
37904;BME280;23738;50.422;18.758;2023-02-04T05:37:47;98687.34;;;-0.68;93.92
37904;BME280;23738;50.422;18.758;2023-02-04T05:40:14;98703.76;;;-0.68;93.94
37904;BME280;23738;50.422;18.758;2023-02-04T05:42:41;98712.55;;;-0.68;93.63
37904;BME280;23738;50.422;18.758;2023-02-04T05:45:13;98723.41;;;-0.67;93.80
37904;BME280;23738;50.422;18.758;2023-02-04T05:47:41;98735.53;;;-0.67;93.58
37904;BME280;23738;50.422;18.758;2023-02-04T05:50:09;98754.15;;;-0.71;93.52
37904;BME280;23738;50.422;18.758;2023-02-04T05:52:37;98766.36;;;-0.72;93.31
37904;BME280;23738;50.422;18.758;2023-02-04T05:55:07;98776.05;;;-0.76;93.29
37904;BME280;23738;50.422;18.758;2023-02-04T05:57:36;98787.91;;;-0.76;93.44
37904;BME280;23738;50.422;18.758;2023-02-04T06:00:07;98804.33;;;-0.78;93.27
37904;BME280;23738;50.422;18.758;2023-02-04T06:02:35;98820.52;;;-0.80;93.40
37904;BME280;23738;50.422;18.758;2023-02-04T06:05:02;98826.84;;;-0.79;93.48
37904;BME280;23738;50.422;18.758;2023-02-04T06:07:29;98844.23;;;-0.78;93.32
37904;BME280;23738;50.422;18.758;2023-02-04T06:09:57;98856.27;;;-0.77;93.35
37904;BME280;23738;50.422;18.758;2023-02-04T06:12:24;98864.44;;;-0.77;93.31
37904;BME280;23738;50.422;18.758;2023-02-04T06:14:51;98875.78;;;-0.78;93.44
37904;BME280;23738;50.422;18.758;2023-02-04T06:17:19;98886.36;;;-0.81;93.02
37904;BME280;23738;50.422;18.758;2023-02-04T06:19:46;98899.59;;;-0.82;93.06
37904;BME280;23738;50.422;18.758;2023-02-04T06:22:13;98910.84;;;-0.84;92.78
37904;BME280;23738;50.422;18.758;2023-02-04T06:24:40;98922.70;;;-0.92;92.67
37904;BME280;23738;50.422;18.758;2023-02-04T06:27:08;98933.34;;;-0.96;92.91
37904;BME280;23738;50.422;18.758;2023-02-04T06:29:35;98945.98;;;-0.96;92.97
37904;BME280;23738;50.422;18.758;2023-02-04T06:32:02;98956.60;;;-0.97;92.57
37904;BME280;23738;50.422;18.758;2023-02-04T06:34:30;98974.48;;;-1.00;92.63
37904;BME280;23738;50.422;18.758;2023-02-04T06:36:57;98978.89;;;-1.01;92.78
37904;BME280;23738;50.422;18.758;2023-02-04T06:39:24;98992.06;;;-1.02;92.80
37904;BME280;23738;50.422;18.758;2023-02-04T06:41:51;99003.93;;;-1.01;92.67
37904;BME280;23738;50.422;18.758;2023-02-04T06:44:18;99016.48;;;-1.00;92.89
37904;BME280;23738;50.422;18.758;2023-02-04T06:46:46;99031.59;;;-0.98;92.63
37904;BME280;23738;50.422;18.758;2023-02-04T06:49:13;99034.52;;;-1.01;92.42
37904;BME280;23738;50.422;18.758;2023-02-04T06:51:40;99048.98;;;-1.02;92.46
37904;BME280;23738;50.422;18.758;2023-02-04T06:54:08;99059.14;;;-1.02;92.30
37904;BME280;23738;50.422;18.758;2023-02-04T06:56:35;99062.79;;;-1.04;91.97
37904;BME280;23738;50.422;18.758;2023-02-04T06:59:03;99070.75;;;-1.07;92.02
37904;BME280;23738;50.422;18.758;2023-02-04T07:01:31;99086.71;;;-1.07;92.30
37904;BME280;23738;50.422;18.758;2023-02-04T07:03:58;99099.66;;;-1.07;92.43
37904;BME280;23738;50.422;18.758;2023-02-04T07:06:25;99106.03;;;-1.06;92.35
37904;BME280;23738;50.422;18.758;2023-02-04T07:08:52;99112.05;;;-1.06;92.07
37904;BME280;23738;50.422;18.758;2023-02-04T07:11:19;99127.95;;;-1.08;91.85
37904;BME280;23738;50.422;18.758;2023-02-04T07:13:47;99133.71;;;-1.07;92.24
37904;BME280;23738;50.422;18.758;2023-02-04T07:16:14;99144.38;;;-1.04;92.31
37904;BME280;23738;50.422;18.758;2023-02-04T07:18:42;99146.05;;;-1.03;92.10
37904;BME280;23738;50.422;18.758;2023-02-04T07:21:09;99159.13;;;-1.00;91.91
37904;BME280;23738;50.422;18.758;2023-02-04T07:23:36;99164.75;;;-0.99;92.11
37904;BME280;23738;50.422;18.758;2023-02-04T07:26:03;99174.09;;;-0.99;92.13
37904;BME280;23738;50.422;18.758;2023-02-04T07:28:31;99181.24;;;-0.97;91.99
37904;BME280;23738;50.422;18.758;2023-02-04T07:30:58;99186.83;;;-0.98;91.86
37904;BME280;23738;50.422;18.758;2023-02-04T07:33:25;99191.10;;;-0.95;92.11
37904;BME280;23738;50.422;18.758;2023-02-04T07:35:52;99201.03;;;-0.91;92.13
37904;BME280;23738;50.422;18.758;2023-02-04T07:38:19;99200.73;;;-0.92;91.56
37904;BME280;23738;50.422;18.758;2023-02-04T07:40:46;99213.02;;;-0.95;91.94
37904;BME280;23738;50.422;18.758;2023-02-04T07:43:14;99223.50;;;-0.94;92.11
37904;BME280;23738;50.422;18.758;2023-02-04T07:45:41;99229.50;;;-0.90;92.13
37904;BME280;23738;50.422;18.758;2023-02-04T07:48:08;99234.95;;;-0.87;91.96
37904;BME280;23738;50.422;18.758;2023-02-04T07:50:36;99243.11;;;-0.85;91.62
37904;BME280;23738;50.422;18.758;2023-02-04T07:53:04;99254.60;;;-0.86;91.81
37904;BME280;23738;50.422;18.758;2023-02-04T07:55:31;99260.45;;;-0.86;91.78
37904;BME280;23738;50.422;18.758;2023-02-04T07:57:58;99265.63;;;-0.83;92.04
37904;BME280;23738;50.422;18.758;2023-02-04T08:00:25;99266.75;;;-0.82;91.76
37904;BME280;23738;50.422;18.758;2023-02-04T08:02:53;99278.00;;;-0.82;91.77
37904;BME280;23738;50.422;18.758;2023-02-04T08:05:20;99284.48;;;-0.83;91.83
37904;BME280;23738;50.422;18.758;2023-02-04T08:07:47;99294.54;;;-0.84;91.93
37904;BME280;23738;50.422;18.758;2023-02-04T08:10:15;99304.97;;;-0.84;91.83
37904;BME280;23738;50.422;18.758;2023-02-04T08:12:42;99315.81;;;-0.81;91.74
37904;BME280;23738;50.422;18.758;2023-02-04T08:15:10;99319.65;;;-0.79;91.67
37904;BME280;23738;50.422;18.758;2023-02-04T08:17:37;99329.95;;;-0.78;91.28
37904;BME280;23738;50.422;18.758;2023-02-04T08:20:06;99332.05;;;-0.81;91.21
37904;BME280;23738;50.422;18.758;2023-02-04T08:22:35;99345.67;;;-0.80;91.40
37904;BME280;23738;50.422;18.758;2023-02-04T08:25:03;99352.98;;;-0.76;91.60
37904;BME280;23738;50.422;18.758;2023-02-04T08:27:31;99368.30;;;-0.70;91.51
37904;BME280;23738;50.422;18.758;2023-02-04T08:29:58;99370.70;;;-0.70;91.37
37904;BME280;23738;50.422;18.758;2023-02-04T08:32:25;99381.27;;;-0.68;91.58
37904;BME280;23738;50.422;18.758;2023-02-04T08:34:55;99389.98;;;-0.66;91.06
37904;BME280;23738;50.422;18.758;2023-02-04T08:37:22;99395.88;;;-0.64;91.33
37904;BME280;23738;50.422;18.758;2023-02-04T08:39:50;99402.16;;;-0.59;91.36
37904;BME280;23738;50.422;18.758;2023-02-04T08:42:18;99403.49;;;-0.59;91.01
37904;BME280;23738;50.422;18.758;2023-02-04T08:44:45;99410.52;;;-0.58;90.82
37904;BME280;23738;50.422;18.758;2023-02-04T08:47:13;99416.77;;;-0.56;91.07
37904;BME280;23738;50.422;18.758;2023-02-04T08:49:40;99422.90;;;-0.57;90.53
37904;BME280;23738;50.422;18.758;2023-02-04T08:52:08;99424.23;;;-0.58;91.04
37904;BME280;23738;50.422;18.758;2023-02-04T08:54:35;99429.95;;;-0.56;90.98
37904;BME280;23738;50.422;18.758;2023-02-04T08:57:03;99427.27;;;-0.53;90.99
37904;BME280;23738;50.422;18.758;2023-02-04T08:59:30;99423.30;;;-0.50;90.93
37904;BME280;23738;50.422;18.758;2023-02-04T09:01:57;99425.58;;;-0.48;90.52
37904;BME280;23738;50.422;18.758;2023-02-04T09:04:25;99437.40;;;-0.51;90.32
37904;BME280;23738;50.422;18.758;2023-02-04T09:06:54;99449.44;;;-0.53;90.41
37904;BME280;23738;50.422;18.758;2023-02-04T09:09:21;99453.98;;;-0.51;90.47
37904;BME280;23738;50.422;18.758;2023-02-04T09:11:48;99461.55;;;-0.46;90.85
37904;BME280;23738;50.422;18.758;2023-02-04T09:14:15;99467.50;;;-0.37;90.88
37904;BME280;23738;50.422;18.758;2023-02-04T09:16:43;99476.83;;;-0.31;90.89
37904;BME280;23738;50.422;18.758;2023-02-04T09:19:10;99486.63;;;-0.23;90.71
37904;BME280;23738;50.422;18.758;2023-02-04T09:21:41;99491.11;;;-0.21;90.09
37904;BME280;23738;50.422;18.758;2023-02-04T09:24:09;99497.48;;;-0.22;89.23
37904;BME280;23738;50.422;18.758;2023-02-04T09:26:36;99504.22;;;-0.27;89.08
37904;BME280;23738;50.422;18.758;2023-02-04T09:29:03;99503.57;;;-0.28;89.64
37904;BME280;23738;50.422;18.758;2023-02-04T09:31:30;99509.02;;;-0.31;89.56
37904;BME280;23738;50.422;18.758;2023-02-04T09:33:57;99517.48;;;-0.19;89.77
37904;BME280;23738;50.422;18.758;2023-02-04T09:36:25;99526.58;;;0.02;89.61
37904;BME280;23738;50.422;18.758;2023-02-04T09:38:56;99533.41;;;0.06;89.05
37904;BME280;23738;50.422;18.758;2023-02-04T09:41:23;99538.23;;;0.11;89.09
37904;BME280;23738;50.422;18.758;2023-02-04T09:43:50;99542.52;;;0.19;88.84
37904;BME280;23738;50.422;18.758;2023-02-04T09:46:21;99549.76;;;0.19;87.79
37904;BME280;23738;50.422;18.758;2023-02-04T09:48:49;99554.17;;;0.13;87.54
37904;BME280;23738;50.422;18.758;2023-02-04T09:51:18;99556.70;;;0.07;87.46
37904;BME280;23738;50.422;18.758;2023-02-04T09:53:48;99556.77;;;-0.04;85.54
37904;BME280;23738;50.422;18.758;2023-02-04T09:56:16;99557.52;;;-0.14;87.30
37904;BME280;23738;50.422;18.758;2023-02-04T09:58:45;99558.60;;;-0.15;87.28
37904;BME280;23738;50.422;18.758;2023-02-04T10:01:14;99558.98;;;-0.18;87.24
37904;BME280;23738;50.422;18.758;2023-02-04T10:03:44;99557.77;;;-0.14;86.35
37904;BME280;23738;50.422;18.758;2023-02-04T10:06:14;99566.39;;;0.07;84.92
37904;BME280;23738;50.422;18.758;2023-02-04T10:08:43;99565.69;;;0.12;85.55
37904;BME280;23738;50.422;18.758;2023-02-04T10:11:12;99574.04;;;0.12;84.79
37904;BME280;23738;50.422;18.758;2023-02-04T10:13:43;99569.39;;;0.23;84.98
37904;BME280;23738;50.422;18.758;2023-02-04T10:16:14;99577.54;;;0.47;84.62
37904;BME280;23738;50.422;18.758;2023-02-04T10:18:43;99582.25;;;0.52;86.08
37904;BME280;23738;50.422;18.758;2023-02-04T10:21:19;99584.55;;;0.51;85.78
37904;BME280;23738;50.422;18.758;2023-02-04T10:23:49;99580.98;;;0.43;85.34
37904;BME280;23738;50.422;18.758;2023-02-04T10:26:20;99588.04;;;0.31;83.78
37904;BME280;23738;50.422;18.758;2023-02-04T10:28:48;99596.41;;;0.18;83.09
37904;BME280;23738;50.422;18.758;2023-02-04T10:31:31;99601.73;;;0.12;84.88
37904;BME280;23738;50.422;18.758;2023-02-04T10:34:08;99605.52;;;0.12;84.56
37904;BME280;23738;50.422;18.758;2023-02-04T10:36:36;99605.08;;;0.09;83.41
37904;BME280;23738;50.422;18.758;2023-02-04T10:39:08;99611.54;;;0.06;83.05
37904;BME280;23738;50.422;18.758;2023-02-04T10:41:36;99613.36;;;0.07;84.09
37904;BME280;23738;50.422;18.758;2023-02-04T10:44:06;99618.80;;;0.08;82.82
37904;BME280;23738;50.422;18.758;2023-02-04T10:46:36;99625.07;;;0.08;84.02
37904;BME280;23738;50.422;18.758;2023-02-04T10:49:04;99619.61;;;0.12;84.74
37904;BME280;23738;50.422;18.758;2023-02-04T10:51:32;99626.65;;;0.17;83.82
37904;BME280;23738;50.422;18.758;2023-02-04T10:53:59;99627.64;;;0.21;84.62
37904;BME280;23738;50.422;18.758;2023-02-04T10:56:45;99630.39;;;0.21;83.08
37904;BME280;23738;50.422;18.758;2023-02-04T10:59:21;99632.29;;;0.18;84.22
37904;BME280;23738;50.422;18.758;2023-02-04T11:01:52;99638.00;;;0.23;84.74
37904;BME280;23738;50.422;18.758;2023-02-04T11:04:20;99639.27;;;0.30;84.56
37904;BME280;23738;50.422;18.758;2023-02-04T11:06:48;99635.73;;;0.33;84.20
37904;BME280;23738;50.422;18.758;2023-02-04T11:09:16;99631.91;;;0.38;84.53
37904;BME280;23738;50.422;18.758;2023-02-04T11:11:46;99629.88;;;0.45;84.25
37904;BME280;23738;50.422;18.758;2023-02-04T11:14:26;99639.09;;;0.47;83.71
37904;BME280;23738;50.422;18.758;2023-02-04T11:16:54;99636.14;;;0.45;83.21
37904;BME280;23738;50.422;18.758;2023-02-04T11:19:35;99646.23;;;0.44;83.44
37904;BME280;23738;50.422;18.758;2023-02-04T11:22:18;99650.58;;;0.47;83.43
37904;BME280;23738;50.422;18.758;2023-02-04T11:24:47;99645.93;;;0.43;80.35
37904;BME280;23738;50.422;18.758;2023-02-04T11:27:23;99651.80;;;0.46;82.65
37904;BME280;23738;50.422;18.758;2023-02-04T11:29:51;99652.98;;;0.66;83.26
37904;BME280;23738;50.422;18.758;2023-02-04T11:32:33;99662.81;;;0.84;81.18
37904;BME280;23738;50.422;18.758;2023-02-04T11:35:21;99667.61;;;0.87;82.31
37904;BME280;23738;50.422;18.758;2023-02-04T11:37:49;99668.45;;;0.82;79.77
37904;BME280;23738;50.422;18.758;2023-02-04T11:40:30;99670.11;;;0.76;80.25
37904;BME280;23738;50.422;18.758;2023-02-04T11:43:00;99666.24;;;0.79;80.22
37904;BME280;23738;50.422;18.758;2023-02-04T11:45:30;99666.02;;;0.87;81.17
37904;BME280;23738;50.422;18.758;2023-02-04T11:48:00;99667.30;;;0.89;82.09
37904;BME280;23738;50.422;18.758;2023-02-04T11:50:30;99667.34;;;1.00;81.70
37904;BME280;23738;50.422;18.758;2023-02-04T11:52:58;99662.89;;;1.32;80.01
37904;BME280;23738;50.422;18.758;2023-02-04T11:55:28;99665.98;;;1.60;81.28
37904;BME280;23738;50.422;18.758;2023-02-04T11:57:56;99667.01;;;1.63;78.55
37904;BME280;23738;50.422;18.758;2023-02-04T12:00:24;99671.73;;;1.53;78.79
37904;BME280;23738;50.422;18.758;2023-02-04T12:02:57;99674.80;;;1.35;75.49
37904;BME280;23738;50.422;18.758;2023-02-04T12:05:36;99682.35;;;1.17;78.38
37904;BME280;23738;50.422;18.758;2023-02-04T12:08:12;99690.61;;;1.04;76.86
37904;BME280;23738;50.422;18.758;2023-02-04T12:10:57;99690.52;;;0.87;76.26
37904;BME280;23738;50.422;18.758;2023-02-04T12:13:26;99693.68;;;0.71;76.80
37904;BME280;23738;50.422;18.758;2023-02-04T12:15:58;99699.45;;;0.66;78.43
37904;BME280;23738;50.422;18.758;2023-02-04T12:18:25;99703.37;;;0.64;78.15
37904;BME280;23738;50.422;18.758;2023-02-04T12:20:54;99700.58;;;0.60;78.51
37904;BME280;23738;50.422;18.758;2023-02-04T12:23:22;99701.23;;;0.58;79.01
37904;BME280;23738;50.422;18.758;2023-02-04T12:25:49;99705.64;;;0.54;77.99
37904;BME280;23738;50.422;18.758;2023-02-04T12:28:17;99713.23;;;0.47;76.92
37904;BME280;23738;50.422;18.758;2023-02-04T12:30:44;99714.64;;;0.37;77.79
37904;BME280;23738;50.422;18.758;2023-02-04T12:33:11;99713.89;;;0.33;78.50
37904;BME280;23738;50.422;18.758;2023-02-04T12:35:39;99707.82;;;0.26;77.87
37904;BME280;23738;50.422;18.758;2023-02-04T12:38:06;99719.57;;;0.21;78.79
37904;BME280;23738;50.422;18.758;2023-02-04T12:40:34;99720.22;;;0.22;78.90
37904;BME280;23738;50.422;18.758;2023-02-04T12:43:02;99719.11;;;0.18;79.02
37904;BME280;23738;50.422;18.758;2023-02-04T12:45:29;99722.10;;;0.15;79.74
37904;BME280;23738;50.422;18.758;2023-02-04T12:47:57;99728.77;;;0.14;79.84
37904;BME280;23738;50.422;18.758;2023-02-04T12:50:24;99733.35;;;0.12;80.01
37904;BME280;23738;50.422;18.758;2023-02-04T12:52:53;99735.37;;;0.11;79.47
37904;BME280;23738;50.422;18.758;2023-02-04T12:55:22;99738.96;;;0.07;79.78
37904;BME280;23738;50.422;18.758;2023-02-04T12:57:50;99745.69;;;-0.01;78.78
37904;BME280;23738;50.422;18.758;2023-02-04T13:00:20;99743.69;;;-0.17;79.08
37904;BME280;23738;50.422;18.758;2023-02-04T13:02:48;99741.41;;;-0.27;79.69